sensor_id;sensor_type;location;lat;lon;timestamp;pressure;altitude;pressure_sealevel;temperature;humidity
63306;BME280;50735;52.060;1.248;2023-05-23T00:00:17;102150.21;;;11.54;48.06
63306;BME280;50735;52.060;1.248;2023-05-23T00:02:49;102150.93;;;11.52;48.16
63306;BME280;50735;52.060;1.248;2023-05-23T00:05:21;102152.56;;;11.56;48.68
63306;BME280;50735;52.060;1.248;2023-05-23T00:07:53;102151.24;;;11.52;48.79
63306;BME280;50735;52.060;1.248;2023-05-23T00:10:25;102149.24;;;11.49;48.64
63306;BME280;50735;52.060;1.248;2023-05-23T00:12:56;102147.49;;;11.48;48.97
63306;BME280;50735;52.060;1.248;2023-05-23T00:15:29;102147.09;;;11.57;49.37
63306;BME280;50735;52.060;1.248;2023-05-23T00:18:00;102148.72;;;11.42;49.20
63306;BME280;50735;52.060;1.248;2023-05-23T00:20:32;102151.12;;;11.47;48.71
63306;BME280;50735;52.060;1.248;2023-05-23T00:23:04;102148.89;;;11.55;49.77
63306;BME280;50735;52.060;1.248;2023-05-23T00:25:36;102155.19;;;11.37;49.27
63306;BME280;50735;52.060;1.248;2023-05-23T00:28:08;102149.47;;;11.39;48.90
63306;BME280;50735;52.060;1.248;2023-05-23T00:30:40;102147.65;;;11.60;49.30
63306;BME280;50735;52.060;1.248;2023-05-23T00:33:11;102150.18;;;11.43;48.82
63306;BME280;50735;52.060;1.248;2023-05-23T00:35:43;102149.64;;;11.42;48.83
63306;BME280;50735;52.060;1.248;2023-05-23T00:38:16;102152.09;;;11.36;48.90
63306;BME280;50735;52.060;1.248;2023-05-23T00:40:48;102150.75;;;11.56;48.93
63306;BME280;50735;52.060;1.248;2023-05-23T00:43:19;102151.88;;;11.55;49.18
63306;BME280;50735;52.060;1.248;2023-05-23T00:45:51;102152.13;;;11.38;49.13
63306;BME280;50735;52.060;1.248;2023-05-23T00:48:23;102154.71;;;11.36;48.93
63306;BME280;50735;52.060;1.248;2023-05-23T00:50:56;102151.50;;;11.34;49.07
63306;BME280;50735;52.060;1.248;2023-05-23T00:53:28;102155.52;;;11.28;49.15
63306;BME280;50735;52.060;1.248;2023-05-23T00:56:01;102154.95;;;11.22;49.28
63306;BME280;50735;52.060;1.248;2023-05-23T00:58:33;102158.00;;;11.38;49.52
63306;BME280;50735;52.060;1.248;2023-05-23T01:01:06;102166.53;;;11.38;49.14
63306;BME280;50735;52.060;1.248;2023-05-23T01:03:38;102161.09;;;11.37;49.30
63306;BME280;50735;52.060;1.248;2023-05-23T01:06:10;102159.02;;;11.39;49.26
63306;BME280;50735;52.060;1.248;2023-05-23T01:08:42;102162.35;;;11.21;49.76
63306;BME280;50735;52.060;1.248;2023-05-23T01:11:19;102163.95;;;11.17;49.62
63306;BME280;50735;52.060;1.248;2023-05-23T01:13:58;102165.76;;;10.91;50.31
63306;BME280;50735;52.060;1.248;2023-05-23T01:16:40;102170.60;;;11.09;50.33
63306;BME280;50735;52.060;1.248;2023-05-23T01:19:33;102174.29;;;10.82;50.26
63306;BME280;50735;52.060;1.248;2023-05-23T01:22:11;102174.35;;;10.89;50.69
63306;BME280;50735;52.060;1.248;2023-05-23T01:24:53;102172.70;;;10.91;51.40
63306;BME280;50735;52.060;1.248;2023-05-23T01:27:36;102179.54;;;10.92;51.59
63306;BME280;50735;52.060;1.248;2023-05-23T01:30:10;102173.23;;;11.00;50.98
63306;BME280;50735;52.060;1.248;2023-05-23T01:32:45;102175.19;;;11.00;51.27
63306;BME280;50735;52.060;1.248;2023-05-23T01:35:23;102175.72;;;10.96;51.84
63306;BME280;50735;52.060;1.248;2023-05-23T01:37:55;102175.00;;;10.57;51.82
63306;BME280;50735;52.060;1.248;2023-05-23T01:40:28;102174.77;;;10.41;53.25
63306;BME280;50735;52.060;1.248;2023-05-23T01:43:00;102184.20;;;10.04;53.66
63306;BME280;50735;52.060;1.248;2023-05-23T01:45:33;102184.28;;;10.44;53.26
63306;BME280;50735;52.060;1.248;2023-05-23T01:48:04;102191.72;;;10.48;53.07
63306;BME280;50735;52.060;1.248;2023-05-23T01:50:36;102189.44;;;10.44;53.46
63306;BME280;50735;52.060;1.248;2023-05-23T01:53:09;102188.44;;;10.55;53.10
63306;BME280;50735;52.060;1.248;2023-05-23T01:55:41;102192.67;;;10.26;54.34
63306;BME280;50735;52.060;1.248;2023-05-23T01:58:14;102189.04;;;9.99;54.16
63306;BME280;50735;52.060;1.248;2023-05-23T02:00:46;102185.75;;;10.22;54.27
63306;BME280;50735;52.060;1.248;2023-05-23T02:03:18;102185.45;;;10.27;54.13
63306;BME280;50735;52.060;1.248;2023-05-23T02:05:49;102194.90;;;10.43;54.17
63306;BME280;50735;52.060;1.248;2023-05-23T02:08:21;102199.41;;;10.34;54.48
63306;BME280;50735;52.060;1.248;2023-05-23T02:10:53;102193.06;;;10.40;54.54
63306;BME280;50735;52.060;1.248;2023-05-23T02:13:25;102187.37;;;10.48;54.24
63306;BME280;50735;52.060;1.248;2023-05-23T02:15:57;102195.12;;;10.34;54.05
63306;BME280;50735;52.060;1.248;2023-05-23T02:18:29;102197.97;;;10.48;54.45
63306;BME280;50735;52.060;1.248;2023-05-23T02:21:00;102203.91;;;9.94;55.46
63306;BME280;50735;52.060;1.248;2023-05-23T02:23:32;102212.03;;;10.27;55.09
63306;BME280;50735;52.060;1.248;2023-05-23T02:26:04;102207.42;;;9.98;54.81
63306;BME280;50735;52.060;1.248;2023-05-23T02:28:35;102214.19;;;9.88;55.93
63306;BME280;50735;52.060;1.248;2023-05-23T02:31:08;102214.32;;;10.06;56.14
63306;BME280;50735;52.060;1.248;2023-05-23T02:33:39;102220.60;;;10.04;55.63
63306;BME280;50735;52.060;1.248;2023-05-23T02:36:11;102219.38;;;10.41;55.10
63306;BME280;50735;52.060;1.248;2023-05-23T02:38:42;102223.55;;;9.93;55.90
63306;BME280;50735;52.060;1.248;2023-05-23T02:41:14;102226.85;;;10.08;56.40
63306;BME280;50735;52.060;1.248;2023-05-23T02:43:46;102224.78;;;10.35;55.65
63306;BME280;50735;52.060;1.248;2023-05-23T02:46:17;102226.00;;;10.27;55.89
63306;BME280;50735;52.060;1.248;2023-05-23T02:48:50;102224.35;;;9.86;56.22
63306;BME280;50735;52.060;1.248;2023-05-23T02:51:21;102225.51;;;10.11;55.51
63306;BME280;50735;52.060;1.248;2023-05-23T02:53:53;102229.99;;;10.36;55.19
63306;BME280;50735;52.060;1.248;2023-05-23T02:56:25;102230.81;;;10.57;54.31
63306;BME280;50735;52.060;1.248;2023-05-23T02:58:57;102229.01;;;10.59;54.04
63306;BME280;50735;52.060;1.248;2023-05-23T03:01:29;102228.09;;;10.73;53.56
63306;BME280;50735;52.060;1.248;2023-05-23T03:04:01;102237.83;;;10.89;53.70
63306;BME280;50735;52.060;1.248;2023-05-23T03:06:32;102241.65;;;11.02;53.14
63306;BME280;50735;52.060;1.248;2023-05-23T03:09:04;102240.81;;;10.61;53.15
63306;BME280;50735;52.060;1.248;2023-05-23T03:11:36;102242.25;;;10.75;53.08
63306;BME280;50735;52.060;1.248;2023-05-23T03:14:08;102244.91;;;11.00;53.00
63306;BME280;50735;52.060;1.248;2023-05-23T03:16:40;102241.63;;;10.85;52.63
63306;BME280;50735;52.060;1.248;2023-05-23T03:19:12;102242.99;;;10.68;53.33
63306;BME280;50735;52.060;1.248;2023-05-23T03:21:43;102240.16;;;10.96;52.90
63306;BME280;50735;52.060;1.248;2023-05-23T03:24:15;102242.14;;;10.67;52.92
63306;BME280;50735;52.060;1.248;2023-05-23T03:26:47;102236.61;;;10.88;52.69
63306;BME280;50735;52.060;1.248;2023-05-23T03:29:19;102234.79;;;10.45;52.99
63306;BME280;50735;52.060;1.248;2023-05-23T03:31:51;102230.20;;;10.52;52.76
63306;BME280;50735;52.060;1.248;2023-05-23T03:34:22;102228.96;;;10.41;52.73
63306;BME280;50735;52.060;1.248;2023-05-23T03:36:54;102229.20;;;10.55;52.96
63306;BME280;50735;52.060;1.248;2023-05-23T03:39:26;102229.98;;;10.59;52.69
63306;BME280;50735;52.060;1.248;2023-05-23T03:41:58;102230.87;;;10.54;52.96
63306;BME280;50735;52.060;1.248;2023-05-23T03:44:30;102232.05;;;10.52;52.68
63306;BME280;50735;52.060;1.248;2023-05-23T03:47:01;102233.43;;;10.28;52.56
63306;BME280;50735;52.060;1.248;2023-05-23T03:49:33;102235.74;;;10.47;52.42
63306;BME280;50735;52.060;1.248;2023-05-23T03:52:05;102242.69;;;10.41;52.52
63306;BME280;50735;52.060;1.248;2023-05-23T03:54:37;102246.46;;;10.33;52.63
63306;BME280;50735;52.060;1.248;2023-05-23T03:57:09;102245.16;;;10.34;52.56
63306;BME280;50735;52.060;1.248;2023-05-23T03:59:41;102248.00;;;10.41;52.30
63306;BME280;50735;52.060;1.248;2023-05-23T04:02:13;102248.10;;;10.39;52.30
63306;BME280;50735;52.060;1.248;2023-05-23T04:04:44;102247.58;;;10.43;52.11
63306;BME280;50735;52.060;1.248;2023-05-23T04:07:16;102247.58;;;10.16;53.04
63306;BME280;50735;52.060;1.248;2023-05-23T04:09:48;102251.69;;;10.07;52.82
63306;BME280;50735;52.060;1.248;2023-05-23T04:12:20;102258.38;;;10.38;52.58
63306;BME280;50735;52.060;1.248;2023-05-23T04:14:52;102261.18;;;10.19;52.99
63306;BME280;50735;52.060;1.248;2023-05-23T04:17:24;102264.84;;;10.14;52.80
63306;BME280;50735;52.060;1.248;2023-05-23T04:19:56;102266.97;;;10.17;52.65
63306;BME280;50735;52.060;1.248;2023-05-23T04:22:27;102262.54;;;10.20;52.42
63306;BME280;50735;52.060;1.248;2023-05-23T04:24:59;102266.34;;;10.40;52.48
63306;BME280;50735;52.060;1.248;2023-05-23T04:27:31;102265.03;;;10.21;52.45
63306;BME280;50735;52.060;1.248;2023-05-23T04:30:03;102268.40;;;10.24;52.35
63306;BME280;50735;52.060;1.248;2023-05-23T04:32:36;102272.13;;;10.19;52.64
63306;BME280;50735;52.060;1.248;2023-05-23T04:35:08;102277.96;;;9.92;53.70
63306;BME280;50735;52.060;1.248;2023-05-23T04:37:40;102273.38;;;9.92;53.47
63306;BME280;50735;52.060;1.248;2023-05-23T04:40:12;102275.41;;;9.96;53.72
63306;BME280;50735;52.060;1.248;2023-05-23T04:42:44;102276.87;;;9.82;53.62
63306;BME280;50735;52.060;1.248;2023-05-23T04:45:16;102279.32;;;10.10;53.38
63306;BME280;50735;52.060;1.248;2023-05-23T04:47:47;102279.55;;;10.12;53.20
63306;BME280;50735;52.060;1.248;2023-05-23T04:50:19;102283.40;;;9.76;53.89
63306;BME280;50735;52.060;1.248;2023-05-23T04:52:51;102286.88;;;9.71;54.77
63306;BME280;50735;52.060;1.248;2023-05-23T04:55:23;102292.52;;;9.73;55.40
63306;BME280;50735;52.060;1.248;2023-05-23T04:57:54;102290.90;;;9.47;54.89
63306;BME280;50735;52.060;1.248;2023-05-23T05:00:26;102293.31;;;9.52;54.91
63306;BME280;50735;52.060;1.248;2023-05-23T05:02:58;102296.26;;;9.54;54.89
63306;BME280;50735;52.060;1.248;2023-05-23T05:05:30;102298.35;;;9.65;54.94
63306;BME280;50735;52.060;1.248;2023-05-23T05:08:02;102303.13;;;9.64;54.33
63306;BME280;50735;52.060;1.248;2023-05-23T05:10:33;102305.39;;;9.86;55.04
63306;BME280;50735;52.060;1.248;2023-05-23T05:13:05;102308.14;;;9.67;54.61
63306;BME280;50735;52.060;1.248;2023-05-23T05:15:37;102307.14;;;9.59;54.84
63306;BME280;50735;52.060;1.248;2023-05-23T05:18:09;102314.50;;;9.51;55.85
63306;BME280;50735;52.060;1.248;2023-05-23T05:20:41;102315.02;;;9.68;55.20
63306;BME280;50735;52.060;1.248;2023-05-23T05:23:12;102318.18;;;9.88;54.60
63306;BME280;50735;52.060;1.248;2023-05-23T05:25:44;102319.25;;;9.72;54.08
63306;BME280;50735;52.060;1.248;2023-05-23T05:28:16;102318.89;;;10.28;54.21
63306;BME280;50735;52.060;1.248;2023-05-23T05:30:48;102324.54;;;9.80;54.55
63306;BME280;50735;52.060;1.248;2023-05-23T05:33:20;102331.26;;;9.80;55.05
63306;BME280;50735;52.060;1.248;2023-05-23T05:35:52;102331.72;;;9.59;55.26
63306;BME280;50735;52.060;1.248;2023-05-23T05:38:24;102326.69;;;9.91;54.23
63306;BME280;50735;52.060;1.248;2023-05-23T05:40:55;102330.16;;;9.63;55.36
63306;BME280;50735;52.060;1.248;2023-05-23T05:43:27;102326.68;;;9.78;54.70
63306;BME280;50735;52.060;1.248;2023-05-23T05:45:59;102322.84;;;9.98;53.98
63306;BME280;50735;52.060;1.248;2023-05-23T05:48:31;102324.90;;;10.29;53.69
63306;BME280;50735;52.060;1.248;2023-05-23T05:51:03;102325.96;;;10.39;53.34
63306;BME280;50735;52.060;1.248;2023-05-23T05:53:34;102329.49;;;10.67;53.20
63306;BME280;50735;52.060;1.248;2023-05-23T05:56:06;102326.70;;;10.36;53.47
63306;BME280;50735;52.060;1.248;2023-05-23T05:58:39;102327.47;;;9.77;54.89
63306;BME280;50735;52.060;1.248;2023-05-23T06:01:10;102333.52;;;10.14;53.70
63306;BME280;50735;52.060;1.248;2023-05-23T06:03:42;102325.66;;;10.00;53.76
63306;BME280;50735;52.060;1.248;2023-05-23T06:06:14;102328.44;;;10.13;53.72
63306;BME280;50735;52.060;1.248;2023-05-23T06:08:46;102333.71;;;10.46;52.72
63306;BME280;50735;52.060;1.248;2023-05-23T06:11:17;102336.07;;;10.65;52.30
63306;BME280;50735;52.060;1.248;2023-05-23T06:13:49;102337.01;;;10.83;52.05
63306;BME280;50735;52.060;1.248;2023-05-23T06:16:21;102342.88;;;10.43;52.10
63306;BME280;50735;52.060;1.248;2023-05-23T06:18:53;102344.21;;;10.52;52.65
63306;BME280;50735;52.060;1.248;2023-05-23T06:21:25;102343.59;;;9.88;54.00
63306;BME280;50735;52.060;1.248;2023-05-23T06:23:56;102336.15;;;10.09;53.17
63306;BME280;50735;52.060;1.248;2023-05-23T06:26:28;102338.81;;;10.27;53.18
63306;BME280;50735;52.060;1.248;2023-05-23T06:29:00;102337.54;;;10.19;52.85
63306;BME280;50735;52.060;1.248;2023-05-23T06:31:32;102337.49;;;10.16;52.80
63306;BME280;50735;52.060;1.248;2023-05-23T06:34:04;102331.62;;;10.64;52.31
63306;BME280;50735;52.060;1.248;2023-05-23T06:36:35;102330.74;;;10.51;51.94
63306;BME280;50735;52.060;1.248;2023-05-23T06:39:07;102330.56;;;10.74;51.66
63306;BME280;50735;52.060;1.248;2023-05-23T06:41:39;102334.26;;;10.65;51.13
63306;BME280;50735;52.060;1.248;2023-05-23T06:44:11;102336.41;;;10.72;51.09
63306;BME280;50735;52.060;1.248;2023-05-23T06:46:44;102337.14;;;10.94;50.56
63306;BME280;50735;52.060;1.248;2023-05-23T06:49:16;102339.29;;;10.83;50.02
63306;BME280;50735;52.060;1.248;2023-05-23T06:51:48;102341.86;;;10.98;49.78
63306;BME280;50735;52.060;1.248;2023-05-23T06:54:20;102343.28;;;11.07;49.28
63306;BME280;50735;52.060;1.248;2023-05-23T06:56:51;102342.73;;;11.38;49.36
63306;BME280;50735;52.060;1.248;2023-05-23T06:59:23;102342.81;;;11.50;49.26
63306;BME280;50735;52.060;1.248;2023-05-23T07:01:55;102346.46;;;11.61;49.08
63306;BME280;50735;52.060;1.248;2023-05-23T07:04:26;102346.09;;;11.15;49.50
63306;BME280;50735;52.060;1.248;2023-05-23T07:06:58;102346.23;;;11.51;48.57
63306;BME280;50735;52.060;1.248;2023-05-23T07:09:30;102349.84;;;11.94;47.91
63306;BME280;50735;52.060;1.248;2023-05-23T07:12:02;102349.39;;;11.72;46.80
63306;BME280;50735;52.060;1.248;2023-05-23T07:14:34;102347.25;;;10.49;48.76
63306;BME280;50735;52.060;1.248;2023-05-23T07:17:05;102356.34;;;11.08;47.62
63306;BME280;50735;52.060;1.248;2023-05-23T07:19:37;102356.25;;;11.22;48.34
63306;BME280;50735;52.060;1.248;2023-05-23T07:22:10;102350.38;;;12.42;46.51
63306;BME280;50735;52.060;1.248;2023-05-23T07:24:42;102355.66;;;13.32;45.46
63306;BME280;50735;52.060;1.248;2023-05-23T07:27:14;102356.73;;;13.20;44.60
63306;BME280;50735;52.060;1.248;2023-05-23T07:29:46;102360.36;;;12.88;44.54
63306;BME280;50735;52.060;1.248;2023-05-23T07:32:17;102361.38;;;13.55;44.41
63306;BME280;50735;52.060;1.248;2023-05-23T07:34:49;102361.85;;;13.06;44.92
63306;BME280;50735;52.060;1.248;2023-05-23T07:37:21;102362.02;;;13.36;44.42
63306;BME280;50735;52.060;1.248;2023-05-23T07:39:53;102355.31;;;13.50;44.33
63306;BME280;50735;52.060;1.248;2023-05-23T07:42:25;102355.20;;;13.70;43.89
63306;BME280;50735;52.060;1.248;2023-05-23T07:44:56;102357.99;;;13.82;42.98
63306;BME280;50735;52.060;1.248;2023-05-23T07:47:28;102358.52;;;13.04;43.43
63306;BME280;50735;52.060;1.248;2023-05-23T07:50:00;102353.08;;;13.64;43.42
63306;BME280;50735;52.060;1.248;2023-05-23T07:52:32;102356.08;;;12.94;44.31
63306;BME280;50735;52.060;1.248;2023-05-23T07:55:05;102362.63;;;13.32;43.94
63306;BME280;50735;52.060;1.248;2023-05-23T07:57:38;102357.19;;;13.83;43.25
63306;BME280;50735;52.060;1.248;2023-05-23T08:00:10;102363.20;;;14.19;42.64
63306;BME280;50735;52.060;1.248;2023-05-23T08:02:43;102361.47;;;14.44;41.98
63306;BME280;50735;52.060;1.248;2023-05-23T08:05:15;102360.83;;;14.91;40.85
63306;BME280;50735;52.060;1.248;2023-05-23T08:07:46;102361.75;;;14.75;41.16
63306;BME280;50735;52.060;1.248;2023-05-23T08:10:18;102360.39;;;14.24;41.84
63306;BME280;50735;52.060;1.248;2023-05-23T08:12:50;102360.95;;;14.59;41.99
63306;BME280;50735;52.060;1.248;2023-05-23T08:15:22;102364.09;;;13.88;42.69
63306;BME280;50735;52.060;1.248;2023-05-23T08:17:54;102360.78;;;13.58;43.21
63306;BME280;50735;52.060;1.248;2023-05-23T08:20:25;102367.16;;;12.88;43.57
63306;BME280;50735;52.060;1.248;2023-05-23T08:22:57;102363.77;;;13.50;43.26
63306;BME280;50735;52.060;1.248;2023-05-23T08:25:30;102360.44;;;12.92;43.14
63306;BME280;50735;52.060;1.248;2023-05-23T08:28:01;102355.53;;;13.48;42.43
63306;BME280;50735;52.060;1.248;2023-05-23T08:30:33;102355.19;;;14.37;40.84
63306;BME280;50735;52.060;1.248;2023-05-23T08:33:05;102356.08;;;14.13;40.92
63306;BME280;50735;52.060;1.248;2023-05-23T08:35:37;102353.44;;;13.11;41.86
63306;BME280;50735;52.060;1.248;2023-05-23T08:38:10;102352.42;;;14.08;41.69
63306;BME280;50735;52.060;1.248;2023-05-23T08:40:47;102354.23;;;15.01;39.74
63306;BME280;50735;52.060;1.248;2023-05-23T08:43:19;102354.65;;;15.48;38.16
63306;BME280;50735;52.060;1.248;2023-05-23T08:45:51;102358.12;;;14.44;38.96
63306;BME280;50735;52.060;1.248;2023-05-23T08:48:25;102361.49;;;14.41;39.85
63306;BME280;50735;52.060;1.248;2023-05-23T08:50:57;102353.32;;;14.53;38.24
63306;BME280;50735;52.060;1.248;2023-05-23T08:53:30;102358.44;;;14.32;39.10
63306;BME280;50735;52.060;1.248;2023-05-23T08:56:03;102358.84;;;15.43;37.15
63306;BME280;50735;52.060;1.248;2023-05-23T08:58:36;102355.38;;;15.54;36.00
63306;BME280;50735;52.060;1.248;2023-05-23T09:01:08;102358.49;;;15.07;37.07
63306;BME280;50735;52.060;1.248;2023-05-23T09:03:41;102358.20;;;14.96;37.46
63306;BME280;50735;52.060;1.248;2023-05-23T09:06:12;102361.66;;;15.82;36.19
63306;BME280;50735;52.060;1.248;2023-05-23T09:08:44;102357.07;;;15.67;35.10
63306;BME280;50735;52.060;1.248;2023-05-23T09:11:16;102358.23;;;16.19;34.28
63306;BME280;50735;52.060;1.248;2023-05-23T09:13:48;102368.53;;;16.51;33.72
63306;BME280;50735;52.060;1.248;2023-05-23T09:16:19;102369.08;;;17.35;33.20
63306;BME280;50735;52.060;1.248;2023-05-23T09:18:51;102364.31;;;16.07;33.40
63306;BME280;50735;52.060;1.248;2023-05-23T09:21:23;102365.88;;;15.64;33.64
63306;BME280;50735;52.060;1.248;2023-05-23T09:23:55;102365.93;;;14.94;35.31
63306;BME280;50735;52.060;1.248;2023-05-23T09:26:27;102366.00;;;15.51;34.72
63306;BME280;50735;52.060;1.248;2023-05-23T09:28:59;102366.85;;;14.64;35.76
63306;BME280;50735;52.060;1.248;2023-05-23T09:31:31;102368.66;;;15.14;35.61
63306;BME280;50735;52.060;1.248;2023-05-23T09:34:03;102372.75;;;15.41;34.34
63306;BME280;50735;52.060;1.248;2023-05-23T09:36:35;102373.78;;;16.15;37.67
63306;BME280;50735;52.060;1.248;2023-05-23T09:39:11;102375.22;;;15.59;34.68
63306;BME280;50735;52.060;1.248;2023-05-23T09:41:43;102381.16;;;15.67;34.67
63306;BME280;50735;52.060;1.248;2023-05-23T09:44:22;102381.31;;;15.02;34.00
63306;BME280;50735;52.060;1.248;2023-05-23T09:46:53;102385.70;;;15.60;33.78
63306;BME280;50735;52.060;1.248;2023-05-23T09:49:25;102384.63;;;16.18;33.68
63306;BME280;50735;52.060;1.248;2023-05-23T09:51:57;102389.24;;;16.53;32.92
63306;BME280;50735;52.060;1.248;2023-05-23T09:54:29;102393.51;;;17.01;32.98
63306;BME280;50735;52.060;1.248;2023-05-23T09:57:01;102397.53;;;16.37;33.16
63306;BME280;50735;52.060;1.248;2023-05-23T09:59:38;102396.98;;;17.15;32.99
63306;BME280;50735;52.060;1.248;2023-05-23T10:02:11;102398.14;;;16.94;32.81
63306;BME280;50735;52.060;1.248;2023-05-23T10:04:43;102395.97;;;17.37;31.63
63306;BME280;50735;52.060;1.248;2023-05-23T10:07:19;102393.56;;;15.71;33.33
63306;BME280;50735;52.060;1.248;2023-05-23T10:09:57;102398.96;;;16.41;32.91
63306;BME280;50735;52.060;1.248;2023-05-23T10:12:41;102401.80;;;16.90;32.06
63306;BME280;50735;52.060;1.248;2023-05-23T10:15:15;102404.76;;;16.25;32.74
63306;BME280;50735;52.060;1.248;2023-05-23T10:17:56;102410.30;;;16.32;33.22
63306;BME280;50735;52.060;1.248;2023-05-23T10:20:31;102410.56;;;16.55;34.05
63306;BME280;50735;52.060;1.248;2023-05-23T10:23:04;102410.78;;;16.87;33.84
63306;BME280;50735;52.060;1.248;2023-05-23T10:25:36;102406.41;;;15.86;34.73
63306;BME280;50735;52.060;1.248;2023-05-23T10:28:08;102410.76;;;16.99;34.36
63306;BME280;50735;52.060;1.248;2023-05-23T10:30:41;102409.51;;;16.36;34.10
63306;BME280;50735;52.060;1.248;2023-05-23T10:33:14;102406.29;;;17.44;32.64
63306;BME280;50735;52.060;1.248;2023-05-23T10:35:59;102406.65;;;15.81;33.39
63306;BME280;50735;52.060;1.248;2023-05-23T10:38:40;102410.23;;;17.04;33.11
63306;BME280;50735;52.060;1.248;2023-05-23T10:41:22;102407.48;;;17.75;33.10
63306;BME280;50735;52.060;1.248;2023-05-23T10:44:03;102406.33;;;17.50;33.27
63306;BME280;50735;52.060;1.248;2023-05-23T10:46:50;102402.84;;;17.55;32.84
63306;BME280;50735;52.060;1.248;2023-05-23T10:49:36;102402.17;;;18.52;32.58
63306;BME280;50735;52.060;1.248;2023-05-23T10:52:09;102396.75;;;18.63;31.65
63306;BME280;50735;52.060;1.248;2023-05-23T10:54:43;102407.16;;;17.03;33.56
63306;BME280;50735;52.060;1.248;2023-05-23T10:57:17;102398.70;;;16.47;34.36
63306;BME280;50735;52.060;1.248;2023-05-23T10:59:50;102399.98;;;17.32;34.12
63306;BME280;50735;52.060;1.248;2023-05-23T11:02:25;102402.82;;;16.79;33.73
63306;BME280;50735;52.060;1.248;2023-05-23T11:05:17;102400.74;;;15.81;34.25
63306;BME280;50735;52.060;1.248;2023-05-23T11:08:09;102401.37;;;16.15;34.39
63306;BME280;50735;52.060;1.248;2023-05-23T11:11:00;102402.63;;;16.03;34.02
63306;BME280;50735;52.060;1.248;2023-05-23T11:14:04;102400.47;;;16.49;33.72
63306;BME280;50735;52.060;1.248;2023-05-23T11:16:40;102399.64;;;16.19;34.57
63306;BME280;50735;52.060;1.248;2023-05-23T11:19:28;102398.88;;;16.60;34.64
63306;BME280;50735;52.060;1.248;2023-05-23T11:22:01;102411.49;;;17.49;33.66
63306;BME280;50735;52.060;1.248;2023-05-23T11:24:50;102407.44;;;18.36;33.30
63306;BME280;50735;52.060;1.248;2023-05-23T11:27:26;102405.24;;;18.29;32.85
63306;BME280;50735;52.060;1.248;2023-05-23T11:30:00;102407.32;;;17.58;33.39
63306;BME280;50735;52.060;1.248;2023-05-23T11:32:33;102410.60;;;17.09;34.41
63306;BME280;50735;52.060;1.248;2023-05-23T11:35:07;102407.35;;;17.12;33.33
63306;BME280;50735;52.060;1.248;2023-05-23T11:37:39;102410.19;;;17.19;33.86
63306;BME280;50735;52.060;1.248;2023-05-23T11:40:28;102410.27;;;16.78;34.26
63306;BME280;50735;52.060;1.248;2023-05-23T11:43:02;102409.46;;;16.35;34.36
63306;BME280;50735;52.060;1.248;2023-05-23T11:45:35;102408.04;;;15.98;34.38
63306;BME280;50735;52.060;1.248;2023-05-23T11:48:09;102407.71;;;16.80;34.20
63306;BME280;50735;52.060;1.248;2023-05-23T11:50:43;102408.79;;;17.34;34.60
63306;BME280;50735;52.060;1.248;2023-05-23T11:53:16;102403.63;;;17.60;33.13
63306;BME280;50735;52.060;1.248;2023-05-23T11:55:50;102401.75;;;17.26;32.63
63306;BME280;50735;52.060;1.248;2023-05-23T11:58:25;102402.54;;;16.95;33.61
63306;BME280;50735;52.060;1.248;2023-05-23T12:00:59;102398.02;;;17.63;32.90
63306;BME280;50735;52.060;1.248;2023-05-23T12:03:31;102396.78;;;16.93;33.21
63306;BME280;50735;52.060;1.248;2023-05-23T12:06:03;102393.47;;;17.25;32.57
63306;BME280;50735;52.060;1.248;2023-05-23T12:08:34;102394.11;;;17.47;32.30
63306;BME280;50735;52.060;1.248;2023-05-23T12:11:06;102390.17;;;17.52;32.36
63306;BME280;50735;52.060;1.248;2023-05-23T12:13:40;102386.23;;;17.82;31.85
63306;BME280;50735;52.060;1.248;2023-05-23T12:16:13;102390.93;;;17.94;31.66
63306;BME280;50735;52.060;1.248;2023-05-23T12:18:44;102384.87;;;18.60;30.99
63306;BME280;50735;52.060;1.248;2023-05-23T12:21:16;102382.98;;;18.73;30.79
63306;BME280;50735;52.060;1.248;2023-05-23T12:23:48;102381.65;;;19.14;30.32
63306;BME280;50735;52.060;1.248;2023-05-23T12:26:20;102373.86;;;19.66;29.56
63306;BME280;50735;52.060;1.248;2023-05-23T12:28:51;102371.29;;;20.52;29.09
63306;BME280;50735;52.060;1.248;2023-05-23T12:31:24;102363.85;;;19.83;28.38
63306;BME280;50735;52.060;1.248;2023-05-23T12:33:56;102368.48;;;18.79;29.79
63306;BME280;50735;52.060;1.248;2023-05-23T12:36:28;102372.05;;;18.40;30.79
63306;BME280;50735;52.060;1.248;2023-05-23T12:39:01;102369.21;;;19.04;29.94
63306;BME280;50735;52.060;1.248;2023-05-23T12:41:34;102366.39;;;18.16;29.94
63306;BME280;50735;52.060;1.248;2023-05-23T12:44:06;102367.52;;;18.85;29.98
63306;BME280;50735;52.060;1.248;2023-05-23T12:46:37;102367.63;;;19.78;29.30
63306;BME280;50735;52.060;1.248;2023-05-23T12:49:09;102365.55;;;20.22;28.37
63306;BME280;50735;52.060;1.248;2023-05-23T12:51:42;102365.43;;;19.98;29.01
63306;BME280;50735;52.060;1.248;2023-05-23T12:54:13;102371.63;;;19.02;29.09
63306;BME280;50735;52.060;1.248;2023-05-23T12:56:45;102360.76;;;19.24;28.35
63306;BME280;50735;52.060;1.248;2023-05-23T12:59:17;102370.95;;;19.08;29.44
63306;BME280;50735;52.060;1.248;2023-05-23T13:01:48;102372.21;;;18.55;29.64
63306;BME280;50735;52.060;1.248;2023-05-23T13:04:20;102374.45;;;18.17;30.91
63306;BME280;50735;52.060;1.248;2023-05-23T13:06:52;102370.74;;;19.26;29.24
63306;BME280;50735;52.060;1.248;2023-05-23T13:09:24;102371.24;;;18.27;29.68
63306;BME280;50735;52.060;1.248;2023-05-23T13:11:55;102366.98;;;19.05;28.77
63306;BME280;50735;52.060;1.248;2023-05-23T13:14:27;102373.86;;;18.02;29.73
63306;BME280;50735;52.060;1.248;2023-05-23T13:16:59;102374.59;;;16.79;30.61
63306;BME280;50735;52.060;1.248;2023-05-23T13:19:30;102376.15;;;16.54;31.63